• Join FlightAware (Why Join?)
  • Login
  • US Flag 
05:22AM EDT


 

Airport Tracker/Info


-or-


 

Live Flight TrackerFlight Track Log ✈ SWA652 ✈ 17-Jun-2013 ✈ KOMA - KLAS

Flight Track Log - Related Links

Times and Time Zones

All times are in EDT time to prevent confusion due to time zone crossing. See the SWA652 flight status page for this flight to view local times or setup timezone preferences in your user account.

Time Position Orientation Groundspeed Altitude Reporting Facility
EDT Latitude Longitude Course Direction KTS MPH feet Rate Location/Type
08:46AM 41.3206 -95.9000 329° Northwest 160 184 1,800  Level Minneapolis Center
08:46AM 41.3450 -95.9194 329° Northwest 180 207 2,800 1,620 Climbing Minneapolis Center
08:47AM 41.3533 -95.9578 286° West 240 276 3,800 2,100 Climbing Minneapolis Center
08:47AM 41.3381 -96.0061 247° West 258 297 5,200 2,760 Climbing Minneapolis Center
08:48AM 41.3194 -96.0492 240° Southwest 254 292 6,700 3,480 Climbing Minneapolis Center
08:49AM 41.2822 -96.1453 243° Southwest 281 323 10,700 3,000 Climbing Minneapolis Center
08:50AM 41.2442 -96.2483 244° Southwest 305 351 12,900 2,220 Climbing Minneapolis Center
08:51AM 41.2250 -96.3817 259° West 361 415 15,300 2,340 Climbing Minneapolis Center
08:52AM 41.2039 -96.5214 259° West 381 438 17,800 2,400 Climbing Minneapolis Center
08:53AM 41.1822 -96.6706 259° West 406 467 20,300 2,520 Climbing Minneapolis Center
08:54AM 41.1589 -96.8233 259° West 419 482 23,000 2,580 Climbing Minneapolis Center
08:55AM 41.1350 -96.9731 258° West 417 480 25,600 2,280 Climbing Minneapolis Center
08:56AM 41.1064 -97.1578 258° West 424 488 27,800 1,980 Climbing Minneapolis Center
08:57AM 41.0811 -97.3150 258° West 432 497 29,700 2,040 Climbing Minneapolis Center
08:58AM 41.0572 -97.4631 258° West 428 493 32,100 2,160 Climbing Minneapolis Center
08:59AM 41.0344 -97.6081 258° West 410 472 34,200 1,740 Climbing Minneapolis Center
09:00AM 41.0122 -97.7503 258° West 398 458 35,700 1,260 Climbing Minneapolis Center
09:01AM 40.9936 -97.8628 258° West 394 453 36,800 1,080 Climbing Minneapolis Center
09:02AM 40.9667 -98.0292 258° West 386 444 38,000 540 Climbing Minneapolis Center
09:03AM 40.9400 -98.1953 258° West 384 442 38,000  Level Minneapolis Center
09:04AM 40.9164 -98.3336 257° West 384 442 38,000  Level Minneapolis Center
09:05AM 40.8925 -98.4717 257° West 384 442 38,000  Level Minneapolis Center
09:06AM 40.8689 -98.6117 257° West 387 445 38,000  Level Minneapolis Center
09:07AM 40.8461 -98.7531 258° West 391 450 38,000  Level Minneapolis Center
09:08AM 40.8222 -98.8947 257° West 394 453 38,000  Level Minneapolis Center
09:09AM 40.8000 -99.0367 258° West 395 455 38,000  Level Minneapolis Center
09:10AM 40.7789 -99.1581 257° West 399 459 38,000  Level Denver Center
09:11AM 40.7539 -99.3019 257° West 400 460 38,000  Level Denver Center
09:12AM 40.7289 -99.4467 257° West 403 464 38,000  Level Denver Center
09:13AM 40.7042 -99.5900 257° West 401 461 38,000  Level Denver Center
09:14AM 40.6783 -99.7358 257° West 407 468 38,000  Level Denver Center
09:15AM 40.6494 -99.8983 257° West 404 465 38,000  Level Denver Center
09:16AM 40.6258 -100.0369 257° West 404 465 38,000  Level Denver Center
09:17AM 40.5967 -100.1986 257° West 405 466 38,000  Level Denver Center
09:18AM 40.5717 -100.3364 257° West 404 465 38,000  Level Denver Center
09:19AM 40.5467 -100.4747 257° West 404 465 38,000  Level Denver Center
09:20AM 40.5167 -100.6356 256° West 403 464 38,000  Level Denver Center
09:21AM 40.4919 -100.7742 257° West 404 465 38,000  Level Denver Center
09:22AM 40.4653 -100.9117 256° West 404 465 38,000  Level Denver Center
09:23AM 40.4361 -101.0722 257° West 404 465 38,000  Level Denver Center
09:24AM 40.4094 -101.2089 256° West 403 464 38,000  Level Denver Center
09:25AM 40.3839 -101.3464 256° West 403 464 38,000  Level Denver Center
09:26AM 40.3533 -101.5078 256° West 406 467 38,000  Level Denver Center
09:28AM 40.3267 -101.6456 256° West 407 468 38,000  Level Denver Center
09:29AM 40.2992 -101.7839 255° West 410 472 38,000  Level Denver Center
09:30AM 40.2681 -101.9439 256° West 407 468 38,000  Level Denver Center
09:31AM 40.2408 -102.0811 255° West 406 467 38,000  Level Denver Center
09:32AM 40.2094 -102.2383 255° West 401 461 38,000  Level Denver Center
09:33AM 40.1822 -102.3733 255° West 400 460 38,000  Level Denver Center
09:34AM 40.1561 -102.5094 256° West 402 463 38,000  Level Denver Center
09:35AM 40.1233 -102.6664 255° West 402 463 38,000  Level Denver Center
09:36AM 40.0956 -102.8050 255° West 404 465 38,000  Level Denver Center
09:37AM 40.0656 -102.9456 254° West 405 466 38,000  Level Denver Center
09:38AM 40.0364 -103.0869 255° West 404 465 38,000  Level Denver Center
09:39AM 40.0075 -103.2286 255° West 404 465 38,000  Level Denver Center
09:40AM 39.9703 -103.3667 251° West 405 466 38,000  Level Denver Center
09:41AM 39.9344 -103.5061 252° West 405 466 38,000  Level Denver Center
09:42AM 39.8997 -103.6458 252° West 406 467 38,000  Level Denver Center
09:43AM 39.8556 -103.8133 251° West 409 471 38,000  Level Denver Center
09:44AM 39.8194 -103.9528 251° West 408 470 38,000  Level Denver Center
09:45AM 39.7828 -104.0883 251° West 397 457 38,000  Level Denver Center
09:46AM 39.7467 -104.2244 251° West 399 459 38,000  Level Denver Center
09:47AM 39.7103 -104.3597 251° West 397 457 38,000  Level Denver Center
09:48AM 39.6756 -104.4919 251° West 390 449 38,000  Level Denver Center
09:49AM 39.6328 -104.6425 250° West 408 470 38,000  Level Denver Center
09:50AM 39.5958 -104.7772 250° West 398 458 38,000  Level Denver Center
09:51AM 39.5600 -104.9139 251° West 396 456 38,000  Level Denver Center
09:52AM 39.5231 -105.0475 250° West 395 455 38,000  Level Denver Center
09:53AM 39.4858 -105.1825 250° West 401 461 38,000  Level Denver Center
09:54AM 39.4486 -105.3172 250° West 396 456 38,000  Level Denver Center
09:55AM 39.4097 -105.4528 250° West 399 459 38,000  Level Denver Center
09:56AM 39.3736 -105.5875 251° West 394 453 38,000  Level Denver Center
09:57AM 39.3264 -105.7500 249° West 402 463 38,000  Level Denver Center
09:58AM 39.2886 -105.8847 250° West 400 460 38,000  Level Denver Center
09:59AM 39.2506 -106.0189 250° West 401 461 38,000  Level Denver Center
10:00AM 39.2119 -106.1519 250° West 397 457 38,000  Level Denver Center
10:01AM 39.1708 -106.2978 250° West 398 458 38,000  Level Denver Center
10:02AM 39.1325 -106.4258 249° West 400 460 38,000  Level Denver Center
10:03AM 39.0883 -106.5767 249° West 401 461 38,000  Level Denver Center
10:04AM 39.0508 -106.7047 249° West 401 461 38,000  Level Denver Center
10:05AM 39.0139 -106.8344 250° West 403 464 38,000  Level Denver Center
10:06AM 38.9683 -106.9850 249° West 404 465 38,000  Level Denver Center
10:07AM 38.9300 -107.1136 249° West 403 464 38,000  Level Denver Center
10:08AM 38.8850 -107.2650 249° West 406 467 38,000  Level Denver Center
10:09AM 38.8461 -107.3925 249° West 402 463 38,000  Level Denver Center
10:10AM 38.8081 -107.5206 249° West 400 460 38,000  Level Denver Center
10:11AM 38.7628 -107.6700 249° West 400 460 38,000  Level Denver Center
10:13AM 38.7228 -107.7983 248° West 402 463 38,000  Level Denver Center
10:14AM 38.6783 -107.9472 249° West 400 460 38,000  Level Denver Center
10:15AM 38.6386 -108.0736 248° West 399 459 38,000  Level Denver Center
10:16AM 38.5997 -108.1997 249° West 397 457 38,000  Level Denver Center
10:17AM 38.5542 -108.3472 248° West 398 458 38,000  Level Denver Center
10:18AM 38.5144 -108.4719 248° West 395 455 38,000  Level Denver Center
10:19AM 38.4692 -108.6189 249° West 397 457 38,000  Level Denver Center
10:20AM 38.4292 -108.7461 248° West 403 464 38,000  Level Denver Center
10:21AM 38.3900 -108.8719 248° West 399 459 38,000  Level Denver Center
10:22AM 38.3358 -109.0375 247° West 399 459 38,000  Level Denver Center
10:23AM 38.2892 -109.1853 248° West 402 463 38,000  Level Denver Center
10:24AM 38.2486 -109.3064 247° West 393 452 38,000  Level Denver Center
10:25AM 38.2089 -109.4336 248° West 400 460 38,000  Level Denver Center
10:26AM 38.1617 -109.5775 247° West 396 456 38,000  Level Denver Center
10:27AM 38.1208 -109.7022 247° West 399 459 38,000  Level Denver Center
10:28AM 38.0733 -109.8461 247° West 396 456 38,000  Level Denver Center
10:29AM 38.0333 -109.9694 248° West 394 453 38,000  Level Denver Center
10:30AM 37.9892 -110.1008 247° West 392 451 38,000 -240 Level Denver Center
10:31AM 37.9411 -110.2447 247° West 395 455 37,600 -660 Descending Denver Center
10:32AM 37.9003 -110.3683 247° West 398 458 36,700 -1,020 Descending Denver Center
10:33AM 37.8506 -110.5161 247° West 408 470 35,600 -960 Descending Denver Center
10:34AM 37.8108 -110.6356 247° West 413 475 34,800 -960 Descending Denver Center
10:35AM 37.7558 -110.7967 247° West 415 478 33,700 -1,020 Descending Denver Center
10:36AM 37.7100 -110.9319 247° West 419 482 32,700 -840 Descending Denver Center
10:37AM 37.6631 -111.0686 247° West 424 488 32,000 -360 Descending Denver Center
10:38AM 37.6161 -111.2056 247° West 425 489 32,000  Level Denver Center
10:40AM 37.5689 -111.3419 246° West 425 489 32,000  Level Denver Center
10:41AM 37.5217 -111.4783 246° West 425 489 32,000  Level Denver Center
10:42AM 37.4731 -111.6147 246° West 427 491 32,000  Level Denver Center
10:43AM 37.4161 -111.7792 246° West 427 491 32,000  Level Denver Center
10:44AM 37.3694 -111.9156 247° West 425 489 32,000  Level Denver Center
10:45AM 37.3225 -112.0514 247° West 423 487 32,000 -60 Level Denver Center
10:46AM 37.2731 -112.1889 246° West 426 490 31,900 -540 Descending Denver Center
10:47AM 37.2236 -112.3264 246° West 429 494 30,900 -960 Descending Denver Center
10:48AM 37.1614 -112.4933 245° Southwest 433 498 29,800 -960 Descending Los Angeles Center
10:49AM 37.1117 -112.6322 246° West 435 501 28,800 -900 Descending Los Angeles Center
10:50AM 37.0614 -112.7714 246° West 436 502 28,000 -420 Descending Los Angeles Center
10:51AM 37.0103 -112.9103 245° Southwest 438 504 28,000  Level Los Angeles Center
10:52AM 36.9494 -113.0758 245° Southwest 435 501 28,000  Level Los Angeles Center
10:53AM 36.8986 -113.2144 245° Southwest 437 503 28,000  Level Los Angeles Center
10:54AM 36.8467 -113.3531 245° Southwest 438 504 28,000  Level Los Angeles Center
10:55AM 36.7956 -113.4925 245° Southwest 441 507 28,000  Level Los Angeles Center
10:56AM 36.7436 -113.6333 245° Southwest 444 511 28,000 -1,260 Level Los Angeles Center
10:57AM 36.6922 -113.7739 246° West 447 514 25,500 -2,760 Descending Los Angeles Center
10:58AM 36.6397 -113.9106 244° Southwest 440 506 22,400 -2,940 Descending Los Angeles Center
10:59AM 36.5919 -114.0419 246° West 422 486 19,500 -3,120 Descending Los Angeles Center
11:00AM 36.5286 -114.1881 242° Southwest 402 463 16,000 -3,120 Descending Los Angeles Center
11:01AM 36.5108 -114.2283 241° Southwest 405 466 15,100 -2,640 Descending Los Angeles Center
11:01AM 36.4769 -114.2992 239° Southwest 393 452 13,400 -1,620 Descending Los Angeles Center
11:02AM 36.4236 -114.4192 241° Southwest 371 427 12,500 -720 Descending Los Angeles Center
11:03AM 36.3556 -114.4931 221° Southwest 316 364 11,900 -1,020 Descending Los Angeles Center
11:04AM 36.2844 -114.5458 211° Southwest 303 349 10,400 -1,380 Descending Los Angeles Center
11:05AM 36.2181 -114.6039 215° Southwest 291 335 9,100 -1,140 Descending Los Angeles Center
11:07AM 36.1458 -114.6683 216° Southwest 279 321 8,000 -480 Descending Los Angeles Center
11:08AM 36.0819 -114.7217 214° Southwest 274 315 8,100 -360 Climbing Los Angeles Center
11:09AM 36.0733 -114.7956 262° West 277 319 7,300 -900 Descending Los Angeles Center
11:10AM 36.0744 -114.8836 271° West 264 304 6,300 -1,440 Descending Los Angeles Center
11:11AM 36.0733 -114.9833 269° West 253 291 4,400 -1,440 Descending Los Angeles Center
11:12AM 36.0739 -115.0464 271° West 215 247 3,400 -960 Descending Los Angeles Center
11:13AM 36.0736 -115.0981 270° West 174 200 2,500 -660 Descending Los Angeles Center
11:14AM 36.0736 -115.1478 270° West 158 182 2,100 -420 Descending Los Angeles Center
11:16AM 36.0667 -115.1500 219° Southwest  Level FlightAware Approximate